sensor_id;sensor_type;location;lat;lon;timestamp;pressure;altitude;pressure_sealevel;temperature
65569;BMP180;52211;50.154;8.682;2023-04-08T00:01:02;100434.00;;;14.30
65569;BMP180;52211;50.154;8.682;2023-04-08T00:03:28;100430.00;;;14.30
65569;BMP180;52211;50.154;8.682;2023-04-08T00:05:56;100435.00;;;14.30
65569;BMP180;52211;50.154;8.682;2023-04-08T00:08:25;100431.00;;;14.30
65569;BMP180;52211;50.154;8.682;2023-04-08T00:10:59;100423.00;;;14.20
65569;BMP180;52211;50.154;8.682;2023-04-08T00:13:26;100429.00;;;14.20
65569;BMP180;52211;50.154;8.682;2023-04-08T00:15:56;100428.00;;;14.20
65569;BMP180;52211;50.154;8.682;2023-04-08T00:18:23;100429.00;;;14.10
65569;BMP180;52211;50.154;8.682;2023-04-08T00:20:53;100430.00;;;14.10
65569;BMP180;52211;50.154;8.682;2023-04-08T00:23:20;100426.00;;;14.10
65569;BMP180;52211;50.154;8.682;2023-04-08T00:25:47;100440.00;;;14.00
65569;BMP180;52211;50.154;8.682;2023-04-08T00:28:21;100441.00;;;14.00
65569;BMP180;52211;50.154;8.682;2023-04-08T00:30:52;100446.00;;;13.90
65569;BMP180;52211;50.154;8.682;2023-04-08T00:33:21;100437.00;;;13.90
65569;BMP180;52211;50.154;8.682;2023-04-08T00:35:50;100442.00;;;13.90
65569;BMP180;52211;50.154;8.682;2023-04-08T00:38:20;100441.00;;;13.80
65569;BMP180;52211;50.154;8.682;2023-04-08T00:40:47;100454.00;;;13.80
65569;BMP180;52211;50.154;8.682;2023-04-08T00:43:17;100443.00;;;13.70
65569;BMP180;52211;50.154;8.682;2023-04-08T00:45:51;100441.00;;;13.60
65569;BMP180;52211;50.154;8.682;2023-04-08T00:48:20;100442.00;;;13.60
65569;BMP180;52211;50.154;8.682;2023-04-08T00:50:47;100444.00;;;13.60
65569;BMP180;52211;50.154;8.682;2023-04-08T00:53:18;100439.00;;;13.50
65569;BMP180;52211;50.154;8.682;2023-04-08T00:55:47;100440.00;;;13.50
65569;BMP180;52211;50.154;8.682;2023-04-08T00:58:17;100440.00;;;13.40
65569;BMP180;52211;50.154;8.682;2023-04-08T01:00:54;100440.00;;;13.40
65569;BMP180;52211;50.154;8.682;2023-04-08T01:06:53;100443.00;;;13.20
65569;BMP180;52211;50.154;8.682;2023-04-08T01:09:27;100452.00;;;13.20
65569;BMP180;52211;50.154;8.682;2023-04-08T01:11:57;100442.00;;;13.20
65569;BMP180;52211;50.154;8.682;2023-04-08T01:14:31;100440.00;;;13.20
65569;BMP180;52211;50.154;8.682;2023-04-08T01:17:08;100440.00;;;13.10
65569;BMP180;52211;50.154;8.682;2023-04-08T01:19:41;100444.00;;;13.10
65569;BMP180;52211;50.154;8.682;2023-04-08T01:22:31;100444.00;;;13.00
65569;BMP180;52211;50.154;8.682;2023-04-08T01:25:07;100449.00;;;13.00
65569;BMP180;52211;50.154;8.682;2023-04-08T01:27:42;100458.00;;;13.00
65569;BMP180;52211;50.154;8.682;2023-04-08T01:30:11;100443.00;;;12.90
65569;BMP180;52211;50.154;8.682;2023-04-08T01:32:43;100451.00;;;12.90
65569;BMP180;52211;50.154;8.682;2023-04-08T01:35:16;100452.00;;;12.90
65569;BMP180;52211;50.154;8.682;2023-04-08T01:37:49;100452.00;;;12.80
65569;BMP180;52211;50.154;8.682;2023-04-08T01:40:18;100444.00;;;12.80
65569;BMP180;52211;50.154;8.682;2023-04-08T01:42:52;100448.00;;;12.80
65569;BMP180;52211;50.154;8.682;2023-04-08T01:45:21;100446.00;;;12.70
65569;BMP180;52211;50.154;8.682;2023-04-08T01:47:49;100445.00;;;12.70
65569;BMP180;52211;50.154;8.682;2023-04-08T01:50:17;100446.00;;;12.70
65569;BMP180;52211;50.154;8.682;2023-04-08T01:52:49;100456.00;;;12.60
65569;BMP180;52211;50.154;8.682;2023-04-08T01:55:22;100452.00;;;12.60
65569;BMP180;52211;50.154;8.682;2023-04-08T01:57:52;100446.00;;;12.60
65569;BMP180;52211;50.154;8.682;2023-04-08T02:00:27;100447.00;;;12.50
65569;BMP180;52211;50.154;8.682;2023-04-08T02:02:56;100445.00;;;12.50
65569;BMP180;52211;50.154;8.682;2023-04-08T02:05:24;100453.00;;;12.50
65569;BMP180;52211;50.154;8.682;2023-04-08T02:07:51;100455.00;;;12.40
65569;BMP180;52211;50.154;8.682;2023-04-08T02:10:20;100445.00;;;12.40
65569;BMP180;52211;50.154;8.682;2023-04-08T02:12:49;100450.00;;;12.40
65569;BMP180;52211;50.154;8.682;2023-04-08T02:15:22;100452.00;;;12.30
65569;BMP180;52211;50.154;8.682;2023-04-08T02:17:59;100447.00;;;12.30
65569;BMP180;52211;50.154;8.682;2023-04-08T02:20:37;100452.00;;;12.20
65569;BMP180;52211;50.154;8.682;2023-04-08T02:23:21;100451.00;;;12.20
65569;BMP180;52211;50.154;8.682;2023-04-08T02:25:54;100453.00;;;12.10
65569;BMP180;52211;50.154;8.682;2023-04-08T02:28:30;100455.00;;;12.10
65569;BMP180;52211;50.154;8.682;2023-04-08T02:31:02;100460.00;;;12.10
65569;BMP180;52211;50.154;8.682;2023-04-08T02:33:33;100455.00;;;12.00
65569;BMP180;52211;50.154;8.682;2023-04-08T02:36:01;100464.00;;;12.00
65569;BMP180;52211;50.154;8.682;2023-04-08T02:38:29;100464.00;;;12.00
65569;BMP180;52211;50.154;8.682;2023-04-08T02:41:04;100460.00;;;11.90
65569;BMP180;52211;50.154;8.682;2023-04-08T02:43:31;100473.00;;;11.90
65569;BMP180;52211;50.154;8.682;2023-04-08T02:46:00;100459.00;;;11.90
65569;BMP180;52211;50.154;8.682;2023-04-08T02:48:32;100475.00;;;11.90
65569;BMP180;52211;50.154;8.682;2023-04-08T02:51:03;100472.00;;;11.90
65569;BMP180;52211;50.154;8.682;2023-04-08T02:53:30;100464.00;;;11.80
65569;BMP180;52211;50.154;8.682;2023-04-08T02:55:57;100474.00;;;11.80
65569;BMP180;52211;50.154;8.682;2023-04-08T02:58:23;100473.00;;;11.80
65569;BMP180;52211;50.154;8.682;2023-04-08T03:00:51;100479.00;;;11.70
65569;BMP180;52211;50.154;8.682;2023-04-08T03:03:18;100477.00;;;11.70
65569;BMP180;52211;50.154;8.682;2023-04-08T03:05:44;100478.00;;;11.60
65569;BMP180;52211;50.154;8.682;2023-04-08T03:08:12;100479.00;;;11.60
65569;BMP180;52211;50.154;8.682;2023-04-08T03:10:40;100481.00;;;11.60
65569;BMP180;52211;50.154;8.682;2023-04-08T03:13:07;100475.00;;;11.60
65569;BMP180;52211;50.154;8.682;2023-04-08T03:15:39;100479.00;;;11.50
65569;BMP180;52211;50.154;8.682;2023-04-08T03:18:06;100476.00;;;11.50
65569;BMP180;52211;50.154;8.682;2023-04-08T03:20:33;100482.00;;;11.50
65569;BMP180;52211;50.154;8.682;2023-04-08T03:23:00;100477.00;;;11.50
65569;BMP180;52211;50.154;8.682;2023-04-08T03:25:30;100480.00;;;11.50
65569;BMP180;52211;50.154;8.682;2023-04-08T03:28:01;100479.00;;;11.50
65569;BMP180;52211;50.154;8.682;2023-04-08T03:30:31;100476.00;;;11.40
65569;BMP180;52211;50.154;8.682;2023-04-08T03:33:03;100480.00;;;11.40
65569;BMP180;52211;50.154;8.682;2023-04-08T03:35:33;100483.00;;;11.40
65569;BMP180;52211;50.154;8.682;2023-04-08T03:38:03;100487.00;;;11.40
65569;BMP180;52211;50.154;8.682;2023-04-08T03:40:32;100496.00;;;11.30
65569;BMP180;52211;50.154;8.682;2023-04-08T03:42:59;100491.00;;;11.30
65569;BMP180;52211;50.154;8.682;2023-04-08T03:45:28;100490.00;;;11.30
65569;BMP180;52211;50.154;8.682;2023-04-08T03:47:55;100490.00;;;11.30
65569;BMP180;52211;50.154;8.682;2023-04-08T03:50:22;100491.00;;;11.30
65569;BMP180;52211;50.154;8.682;2023-04-08T03:52:49;100483.00;;;11.30
65569;BMP180;52211;50.154;8.682;2023-04-08T03:55:16;100488.00;;;11.20
65569;BMP180;52211;50.154;8.682;2023-04-08T03:57:45;100480.00;;;11.20
65569;BMP180;52211;50.154;8.682;2023-04-08T04:00:13;100482.00;;;11.20
65569;BMP180;52211;50.154;8.682;2023-04-08T04:02:40;100493.00;;;11.20
65569;BMP180;52211;50.154;8.682;2023-04-08T04:05:07;100489.00;;;11.10
65569;BMP180;52211;50.154;8.682;2023-04-08T04:07:37;100492.00;;;11.10
65569;BMP180;52211;50.154;8.682;2023-04-08T04:10:04;100498.00;;;11.10
65569;BMP180;52211;50.154;8.682;2023-04-08T04:12:36;100492.00;;;11.10
65569;BMP180;52211;50.154;8.682;2023-04-08T04:15:06;100492.00;;;11.10
65569;BMP180;52211;50.154;8.682;2023-04-08T04:17:36;100491.00;;;11.00
65569;BMP180;52211;50.154;8.682;2023-04-08T04:20:05;100499.00;;;11.00
65569;BMP180;52211;50.154;8.682;2023-04-08T04:22:32;100497.00;;;11.00
65569;BMP180;52211;50.154;8.682;2023-04-08T04:25:01;100489.00;;;11.00
65569;BMP180;52211;50.154;8.682;2023-04-08T04:27:35;100493.00;;;10.90
65569;BMP180;52211;50.154;8.682;2023-04-08T04:30:07;100495.00;;;10.90
65569;BMP180;52211;50.154;8.682;2023-04-08T04:32:37;100507.00;;;10.90
65569;BMP180;52211;50.154;8.682;2023-04-08T04:35:11;100498.00;;;10.90
65569;BMP180;52211;50.154;8.682;2023-04-08T04:37:40;100513.00;;;10.90
65569;BMP180;52211;50.154;8.682;2023-04-08T04:40:09;100514.00;;;10.80
65569;BMP180;52211;50.154;8.682;2023-04-08T04:42:36;100499.00;;;10.80
65569;BMP180;52211;50.154;8.682;2023-04-08T04:45:06;100494.00;;;10.80
65569;BMP180;52211;50.154;8.682;2023-04-08T04:47:36;100503.00;;;10.80
65569;BMP180;52211;50.154;8.682;2023-04-08T04:50:05;100498.00;;;10.80
65569;BMP180;52211;50.154;8.682;2023-04-08T04:52:34;100498.00;;;10.80
65569;BMP180;52211;50.154;8.682;2023-04-08T04:55:04;100501.00;;;10.70
65569;BMP180;52211;50.154;8.682;2023-04-08T04:57:33;100498.00;;;10.70
65569;BMP180;52211;50.154;8.682;2023-04-08T05:00:05;100506.00;;;10.70
65569;BMP180;52211;50.154;8.682;2023-04-08T05:02:34;100508.00;;;10.70
65569;BMP180;52211;50.154;8.682;2023-04-08T05:05:02;100507.00;;;10.70
65569;BMP180;52211;50.154;8.682;2023-04-08T05:07:35;100509.00;;;10.60
65569;BMP180;52211;50.154;8.682;2023-04-08T05:10:05;100512.00;;;10.60
65569;BMP180;52211;50.154;8.682;2023-04-08T05:12:32;100519.00;;;10.60
65569;BMP180;52211;50.154;8.682;2023-04-08T05:15:04;100522.00;;;10.60
65569;BMP180;52211;50.154;8.682;2023-04-08T05:17:32;100521.00;;;10.60
65569;BMP180;52211;50.154;8.682;2023-04-08T05:20:01;100532.00;;;10.50
65569;BMP180;52211;50.154;8.682;2023-04-08T05:22:31;100535.00;;;10.60
65569;BMP180;52211;50.154;8.682;2023-04-08T05:25:00;100534.00;;;10.50
65569;BMP180;52211;50.154;8.682;2023-04-08T05:27:27;100537.00;;;10.50
65569;BMP180;52211;50.154;8.682;2023-04-08T05:29:53;100540.00;;;10.50
65569;BMP180;52211;50.154;8.682;2023-04-08T05:32:21;100536.00;;;10.50
65569;BMP180;52211;50.154;8.682;2023-04-08T05:34:52;100537.00;;;10.50
65569;BMP180;52211;50.154;8.682;2023-04-08T05:37:24;100540.00;;;10.50
65569;BMP180;52211;50.154;8.682;2023-04-08T05:39:51;100540.00;;;10.50
65569;BMP180;52211;50.154;8.682;2023-04-08T05:42:20;100541.00;;;10.50
65569;BMP180;52211;50.154;8.682;2023-04-08T05:44:47;100530.00;;;10.60
65569;BMP180;52211;50.154;8.682;2023-04-08T05:47:14;100540.00;;;10.60
65569;BMP180;52211;50.154;8.682;2023-04-08T05:49:46;100534.00;;;10.60
65569;BMP180;52211;50.154;8.682;2023-04-08T05:52:17;100541.00;;;10.60
65569;BMP180;52211;50.154;8.682;2023-04-08T05:54:46;100542.00;;;10.70
65569;BMP180;52211;50.154;8.682;2023-04-08T05:57:15;100551.00;;;10.70
65569;BMP180;52211;50.154;8.682;2023-04-08T05:59:48;100558.00;;;10.70
65569;BMP180;52211;50.154;8.682;2023-04-08T06:02:19;100559.00;;;10.80
65569;BMP180;52211;50.154;8.682;2023-04-08T06:04:48;100563.00;;;10.80
65569;BMP180;52211;50.154;8.682;2023-04-08T06:07:18;100575.00;;;10.80
65569;BMP180;52211;50.154;8.682;2023-04-08T06:09:50;100566.00;;;10.90
65569;BMP180;52211;50.154;8.682;2023-04-08T06:12:19;100576.00;;;10.90
65569;BMP180;52211;50.154;8.682;2023-04-08T06:14:47;100573.00;;;11.00
65569;BMP180;52211;50.154;8.682;2023-04-08T06:17:16;100583.00;;;11.00
65569;BMP180;52211;50.154;8.682;2023-04-08T06:19:45;100574.00;;;11.10
65569;BMP180;52211;50.154;8.682;2023-04-08T06:22:12;100573.00;;;11.10
65569;BMP180;52211;50.154;8.682;2023-04-08T06:24:42;100574.00;;;11.20
65569;BMP180;52211;50.154;8.682;2023-04-08T06:27:09;100573.00;;;11.20
65569;BMP180;52211;50.154;8.682;2023-04-08T06:29:36;100579.00;;;11.30
65569;BMP180;52211;50.154;8.682;2023-04-08T06:32:02;100581.00;;;11.30
65569;BMP180;52211;50.154;8.682;2023-04-08T06:34:32;100591.00;;;11.40
65569;BMP180;52211;50.154;8.682;2023-04-08T06:37:06;100592.00;;;11.50
65569;BMP180;52211;50.154;8.682;2023-04-08T06:39:33;100591.00;;;11.50
65569;BMP180;52211;50.154;8.682;2023-04-08T06:42:03;100596.00;;;11.60
65569;BMP180;52211;50.154;8.682;2023-04-08T06:44:42;100604.00;;;11.70
65569;BMP180;52211;50.154;8.682;2023-04-08T06:47:11;100606.00;;;11.70
65569;BMP180;52211;50.154;8.682;2023-04-08T06:49:42;100608.00;;;11.80
65569;BMP180;52211;50.154;8.682;2023-04-08T06:52:09;100606.00;;;11.90
65569;BMP180;52211;50.154;8.682;2023-04-08T06:54:38;100610.00;;;11.90
65569;BMP180;52211;50.154;8.682;2023-04-08T06:57:05;100614.00;;;12.00
65569;BMP180;52211;50.154;8.682;2023-04-08T06:59:33;100617.00;;;12.00
65569;BMP180;52211;50.154;8.682;2023-04-08T07:02:02;100610.00;;;12.10
65569;BMP180;52211;50.154;8.682;2023-04-08T07:04:30;100615.00;;;12.10
65569;BMP180;52211;50.154;8.682;2023-04-08T07:07:01;100618.00;;;12.20
65569;BMP180;52211;50.154;8.682;2023-04-08T07:09:32;100617.00;;;12.30
65569;BMP180;52211;50.154;8.682;2023-04-08T07:11:59;100621.00;;;12.30
65569;BMP180;52211;50.154;8.682;2023-04-08T07:14:28;100618.00;;;12.40
65569;BMP180;52211;50.154;8.682;2023-04-08T07:16:56;100625.00;;;12.50
65569;BMP180;52211;50.154;8.682;2023-04-08T07:19:25;100630.00;;;12.50
65569;BMP180;52211;50.154;8.682;2023-04-08T07:21:52;100623.00;;;12.60
65569;BMP180;52211;50.154;8.682;2023-04-08T07:24:22;100621.00;;;12.70
65569;BMP180;52211;50.154;8.682;2023-04-08T07:26:49;100622.00;;;12.70
65569;BMP180;52211;50.154;8.682;2023-04-08T07:29:19;100625.00;;;12.80
65569;BMP180;52211;50.154;8.682;2023-04-08T07:31:48;100623.00;;;12.80
65569;BMP180;52211;50.154;8.682;2023-04-08T07:34:17;100638.00;;;12.90
65569;BMP180;52211;50.154;8.682;2023-04-08T07:36:46;100638.00;;;13.00
65569;BMP180;52211;50.154;8.682;2023-04-08T07:39:15;100634.00;;;13.00
65569;BMP180;52211;50.154;8.682;2023-04-08T07:41:45;100634.00;;;13.10
65569;BMP180;52211;50.154;8.682;2023-04-08T07:44:12;100639.00;;;13.20
65569;BMP180;52211;50.154;8.682;2023-04-08T07:46:42;100641.00;;;13.30
65569;BMP180;52211;50.154;8.682;2023-04-08T07:49:14;100643.00;;;13.30
65569;BMP180;52211;50.154;8.682;2023-04-08T07:51:48;100651.00;;;13.40
65569;BMP180;52211;50.154;8.682;2023-04-08T07:54:17;100644.00;;;13.50
65569;BMP180;52211;50.154;8.682;2023-04-08T07:56:47;100644.00;;;13.50
65569;BMP180;52211;50.154;8.682;2023-04-08T07:59:16;100650.00;;;13.60
65569;BMP180;52211;50.154;8.682;2023-04-08T08:01:43;100660.00;;;13.60
65569;BMP180;52211;50.154;8.682;2023-04-08T08:04:13;100659.00;;;13.60
65569;BMP180;52211;50.154;8.682;2023-04-08T08:06:40;100660.00;;;13.70
65569;BMP180;52211;50.154;8.682;2023-04-08T08:09:09;100669.00;;;13.70
65569;BMP180;52211;50.154;8.682;2023-04-08T08:11:39;100674.00;;;13.80
65569;BMP180;52211;50.154;8.682;2023-04-08T08:14:08;100680.00;;;13.80
65569;BMP180;52211;50.154;8.682;2023-04-08T08:16:37;100675.00;;;13.80
65569;BMP180;52211;50.154;8.682;2023-04-08T08:19:05;100679.00;;;13.80
65569;BMP180;52211;50.154;8.682;2023-04-08T08:21:36;100678.00;;;13.90
65569;BMP180;52211;50.154;8.682;2023-04-08T08:24:06;100683.00;;;13.90
65569;BMP180;52211;50.154;8.682;2023-04-08T08:26:36;100685.00;;;13.90
65569;BMP180;52211;50.154;8.682;2023-04-08T08:29:08;100681.00;;;13.90
65569;BMP180;52211;50.154;8.682;2023-04-08T08:31:37;100681.00;;;13.90
65569;BMP180;52211;50.154;8.682;2023-04-08T08:34:06;100687.00;;;13.90
65569;BMP180;52211;50.154;8.682;2023-04-08T08:36:36;100691.00;;;13.90
65569;BMP180;52211;50.154;8.682;2023-04-08T08:39:05;100692.00;;;13.90
65569;BMP180;52211;50.154;8.682;2023-04-08T08:41:37;100694.00;;;13.90
65569;BMP180;52211;50.154;8.682;2023-04-08T08:44:05;100697.00;;;13.90
65569;BMP180;52211;50.154;8.682;2023-04-08T08:46:46;100705.00;;;13.90
65569;BMP180;52211;50.154;8.682;2023-04-08T08:49:18;100708.00;;;13.90
65569;BMP180;52211;50.154;8.682;2023-04-08T08:51:49;100701.00;;;13.90
65569;BMP180;52211;50.154;8.682;2023-04-08T08:54:16;100707.00;;;13.90
65569;BMP180;52211;50.154;8.682;2023-04-08T08:56:45;100709.00;;;13.90
65569;BMP180;52211;50.154;8.682;2023-04-08T08:59:20;100711.00;;;13.90
65569;BMP180;52211;50.154;8.682;2023-04-08T09:01:47;100710.00;;;13.90
65569;BMP180;52211;50.154;8.682;2023-04-08T09:04:16;100709.00;;;13.90
65569;BMP180;52211;50.154;8.682;2023-04-08T09:06:50;100709.00;;;13.90
65569;BMP180;52211;50.154;8.682;2023-04-08T09:09:49;100711.00;;;13.90
65569;BMP180;52211;50.154;8.682;2023-04-08T09:12:21;100717.00;;;14.00
65569;BMP180;52211;50.154;8.682;2023-04-08T09:15:04;100718.00;;;14.00
65569;BMP180;52211;50.154;8.682;2023-04-08T09:17:37;100717.00;;;14.10
65569;BMP180;52211;50.154;8.682;2023-04-08T09:20:11;100719.00;;;14.10
65569;BMP180;52211;50.154;8.682;2023-04-08T09:25:30;100717.00;;;14.20
65569;BMP180;52211;50.154;8.682;2023-04-08T09:28:01;100723.00;;;14.20
65569;BMP180;52211;50.154;8.682;2023-04-08T09:30:33;100726.00;;;14.30
65569;BMP180;52211;50.154;8.682;2023-04-08T09:33:07;100715.00;;;14.30
65569;BMP180;52211;50.154;8.682;2023-04-08T09:35:42;100722.00;;;14.40
65569;BMP180;52211;50.154;8.682;2023-04-08T09:38:12;100719.00;;;14.40
65569;BMP180;52211;50.154;8.682;2023-04-08T09:40:43;100718.00;;;14.50
65569;BMP180;52211;50.154;8.682;2023-04-08T09:43:13;100724.00;;;14.50
65569;BMP180;52211;50.154;8.682;2023-04-08T09:45:48;100730.00;;;14.60
65569;BMP180;52211;50.154;8.682;2023-04-08T09:48:26;100733.00;;;14.70
65569;BMP180;52211;50.154;8.682;2023-04-08T09:50:59;100730.00;;;14.70
65569;BMP180;52211;50.154;8.682;2023-04-08T09:53:40;100739.00;;;14.70
65569;BMP180;52211;50.154;8.682;2023-04-08T09:56:13;100732.00;;;14.80
65569;BMP180;52211;50.154;8.682;2023-04-08T09:58:50;100733.00;;;14.80
65569;BMP180;52211;50.154;8.682;2023-04-08T10:01:25;100725.00;;;14.80
65569;BMP180;52211;50.154;8.682;2023-04-08T10:03:59;100728.00;;;14.80
65569;BMP180;52211;50.154;8.682;2023-04-08T10:06:33;100727.00;;;14.80
65569;BMP180;52211;50.154;8.682;2023-04-08T10:09:04;100728.00;;;14.90
65569;BMP180;52211;50.154;8.682;2023-04-08T10:11:34;100719.00;;;15.00
65569;BMP180;52211;50.154;8.682;2023-04-08T10:14:04;100723.00;;;15.20
65569;BMP180;52211;50.154;8.682;2023-04-08T10:16:31;100715.00;;;15.30
65569;BMP180;52211;50.154;8.682;2023-04-08T10:18:58;100726.00;;;15.50
65569;BMP180;52211;50.154;8.682;2023-04-08T10:24:10;100725.00;;;15.80
65569;BMP180;52211;50.154;8.682;2023-04-08T10:26:41;100717.00;;;15.90
65569;BMP180;52211;50.154;8.682;2023-04-08T10:31:48;100717.00;;;16.10
65569;BMP180;52211;50.154;8.682;2023-04-08T10:34:20;100718.00;;;16.20
65569;BMP180;52211;50.154;8.682;2023-04-08T10:36:50;100722.00;;;16.30
65569;BMP180;52211;50.154;8.682;2023-04-08T10:39:18;100719.00;;;16.40
65569;BMP180;52211;50.154;8.682;2023-04-08T10:41:49;100706.00;;;16.40
65569;BMP180;52211;50.154;8.682;2023-04-08T10:44:22;100717.00;;;16.60
65569;BMP180;52211;50.154;8.682;2023-04-08T10:46:53;100713.00;;;16.80
65569;BMP180;52211;50.154;8.682;2023-04-08T10:49:20;100715.00;;;17.00
65569;BMP180;52211;50.154;8.682;2023-04-08T10:51:47;100721.00;;;17.20
65569;BMP180;52211;50.154;8.682;2023-04-08T10:54:18;100728.00;;;17.40
65569;BMP180;52211;50.154;8.682;2023-04-08T10:56:51;100723.00;;;17.60
65569;BMP180;52211;50.154;8.682;2023-04-08T10:59:30;100727.00;;;17.70
65569;BMP180;52211;50.154;8.682;2023-04-08T11:02:00;100729.00;;;17.90
65569;BMP180;52211;50.154;8.682;2023-04-08T11:04:40;100725.00;;;18.00
65569;BMP180;52211;50.154;8.682;2023-04-08T11:07:08;100727.00;;;18.10
65569;BMP180;52211;50.154;8.682;2023-04-08T11:09:41;100725.00;;;18.20
65569;BMP180;52211;50.154;8.682;2023-04-08T11:12:11;100730.00;;;18.30
65569;BMP180;52211;50.154;8.682;2023-04-08T11:14:44;100724.00;;;18.30
65569;BMP180;52211;50.154;8.682;2023-04-08T11:17:16;100715.00;;;18.40
65569;BMP180;52211;50.154;8.682;2023-04-08T11:19:45;100712.00;;;18.50
65569;BMP180;52211;50.154;8.682;2023-04-08T11:22:15;100712.00;;;18.70
65569;BMP180;52211;50.154;8.682;2023-04-08T11:24:45;100712.00;;;18.80
65569;BMP180;52211;50.154;8.682;2023-04-08T11:27:17;100717.00;;;18.90
65569;BMP180;52211;50.154;8.682;2023-04-08T11:29:44;100715.00;;;18.90
65569;BMP180;52211;50.154;8.682;2023-04-08T11:32:11;100715.00;;;18.80
65569;BMP180;52211;50.154;8.682;2023-04-08T11:34:41;100710.00;;;18.80
65569;BMP180;52211;50.154;8.682;2023-04-08T11:37:11;100713.00;;;18.70
65569;BMP180;52211;50.154;8.682;2023-04-08T11:39:46;100707.00;;;18.60
65569;BMP180;52211;50.154;8.682;2023-04-08T11:42:32;100714.00;;;18.50
65569;BMP180;52211;50.154;8.682;2023-04-08T11:45:12;100716.00;;;18.30
65569;BMP180;52211;50.154;8.682;2023-04-08T11:47:42;100713.00;;;18.20
65569;BMP180;52211;50.154;8.682;2023-04-08T11:50:22;100721.00;;;18.10
65569;BMP180;52211;50.154;8.682;2023-04-08T11:52:52;100722.00;;;18.00
65569;BMP180;52211;50.154;8.682;2023-04-08T11:55:35;100724.00;;;17.90
65569;BMP180;52211;50.154;8.682;2023-04-08T11:58:05;100719.00;;;18.00
65569;BMP180;52211;50.154;8.682;2023-04-08T12:00:37;100716.00;;;18.10
65569;BMP180;52211;50.154;8.682;2023-04-08T12:03:07;100722.00;;;18.20
65569;BMP180;52211;50.154;8.682;2023-04-08T12:05:39;100725.00;;;18.30
65569;BMP180;52211;50.154;8.682;2023-04-08T12:08:13;100716.00;;;18.40
65569;BMP180;52211;50.154;8.682;2023-04-08T12:10:42;100724.00;;;18.50
65569;BMP180;52211;50.154;8.682;2023-04-08T12:13:09;100725.00;;;18.60
65569;BMP180;52211;50.154;8.682;2023-04-08T12:15:36;100724.00;;;18.70
65569;BMP180;52211;50.154;8.682;2023-04-08T12:18:03;100720.00;;;18.70
65569;BMP180;52211;50.154;8.682;2023-04-08T12:20:31;100723.00;;;18.80
65569;BMP180;52211;50.154;8.682;2023-04-08T12:22:58;100721.00;;;18.80
65569;BMP180;52211;50.154;8.682;2023-04-08T12:25:25;100725.00;;;18.80
65569;BMP180;52211;50.154;8.682;2023-04-08T12:27:55;100726.00;;;18.80
65569;BMP180;52211;50.154;8.682;2023-04-08T12:30:22;100720.00;;;18.80
65569;BMP180;52211;50.154;8.682;2023-04-08T12:32:49;100717.00;;;19.00
65569;BMP180;52211;50.154;8.682;2023-04-08T12:35:16;100723.00;;;19.10
65569;BMP180;52211;50.154;8.682;2023-04-08T12:37:45;100707.00;;;19.20
65569;BMP180;52211;50.154;8.682;2023-04-08T12:40:13;100709.00;;;19.50
65569;BMP180;52211;50.154;8.682;2023-04-08T12:42:43;100718.00;;;19.80
65569;BMP180;52211;50.154;8.682;2023-04-08T12:45:09;100706.00;;;20.00
65569;BMP180;52211;50.154;8.682;2023-04-08T12:47:36;100702.00;;;20.20
65569;BMP180;52211;50.154;8.682;2023-04-08T12:50:07;100704.00;;;20.50
65569;BMP180;52211;50.154;8.682;2023-04-08T12:52:35;100705.00;;;20.80
65569;BMP180;52211;50.154;8.682;2023-04-08T12:55:03;100707.00;;;21.20
65569;BMP180;52211;50.154;8.682;2023-04-08T12:57:30;100695.00;;;21.50
65569;BMP180;52211;50.154;8.682;2023-04-08T12:59:57;100704.00;;;21.80
65569;BMP180;52211;50.154;8.682;2023-04-08T13:02:24;100700.00;;;22.00
65569;BMP180;52211;50.154;8.682;2023-04-08T13:04:55;100713.00;;;22.00
65569;BMP180;52211;50.154;8.682;2023-04-08T13:07:24;100706.00;;;22.10
65569;BMP180;52211;50.154;8.682;2023-04-08T13:10:00;100709.00;;;22.00
65569;BMP180;52211;50.154;8.682;2023-04-08T13:12:39;100717.00;;;21.90
65569;BMP180;52211;50.154;8.682;2023-04-08T13:15:07;100713.00;;;21.80
65569;BMP180;52211;50.154;8.682;2023-04-08T13:17:36;100706.00;;;21.60
65569;BMP180;52211;50.154;8.682;2023-04-08T13:20:04;100713.00;;;21.40
65569;BMP180;52211;50.154;8.682;2023-04-08T13:22:35;100708.00;;;21.30
65569;BMP180;52211;50.154;8.682;2023-04-08T13:25:07;100708.00;;;21.10
65569;BMP180;52211;50.154;8.682;2023-04-08T13:27:36;100700.00;;;21.00
65569;BMP180;52211;50.154;8.682;2023-04-08T13:30:09;100706.00;;;20.80
65569;BMP180;52211;50.154;8.682;2023-04-08T13:32:36;100708.00;;;20.60
65569;BMP180;52211;50.154;8.682;2023-04-08T13:35:05;100708.00;;;20.50
65569;BMP180;52211;50.154;8.682;2023-04-08T13:37:37;100704.00;;;20.30
65569;BMP180;52211;50.154;8.682;2023-04-08T13:40:04;100708.00;;;20.20
65569;BMP180;52211;50.154;8.682;2023-04-08T13:42:37;100716.00;;;20.10
65569;BMP180;52211;50.154;8.682;2023-04-08T13:45:07;100713.00;;;19.90
65569;BMP180;52211;50.154;8.682;2023-04-08T13:47:37;100708.00;;;19.80
65569;BMP180;52211;50.154;8.682;2023-04-08T13:50:06;100706.00;;;19.70
65569;BMP180;52211;50.154;8.682;2023-04-08T13:52:37;100710.00;;;19.60
65569;BMP180;52211;50.154;8.682;2023-04-08T13:55:09;100708.00;;;19.50
65569;BMP180;52211;50.154;8.682;2023-04-08T13:57:38;100699.00;;;19.40
65569;BMP180;52211;50.154;8.682;2023-04-08T14:00:06;100699.00;;;19.40
65569;BMP180;52211;50.154;8.682;2023-04-08T14:02:40;100702.00;;;19.30
65569;BMP180;52211;50.154;8.682;2023-04-08T14:05:07;100706.00;;;19.20
65569;BMP180;52211;50.154;8.682;2023-04-08T14:07:34;100703.00;;;19.10
65569;BMP180;52211;50.154;8.682;2023-04-08T14:10:07;100704.00;;;19.00
65569;BMP180;52211;50.154;8.682;2023-04-08T14:12:34;100715.00;;;18.90
65569;BMP180;52211;50.154;8.682;2023-04-08T14:15:01;100708.00;;;18.90
65569;BMP180;52211;50.154;8.682;2023-04-08T14:17:33;100709.00;;;18.80
65569;BMP180;52211;50.154;8.682;2023-04-08T14:20:02;100705.00;;;18.70
65569;BMP180;52211;50.154;8.682;2023-04-08T14:22:31;100708.00;;;18.60
65569;BMP180;52211;50.154;8.682;2023-04-08T14:24:58;100708.00;;;18.50